RPLL/MNL METAR and TAF weather

Enter ICAO airport designator
Station Type Date Time Source
RPLL METAR 2021/03/07 23:00 UTC NOAA

RPLL 072300Z 13003KT 080V180 9999 FEW030 SCT100 26/20 Q1015 NOSIG RMK A2997


Station Type Date Time Source
RPLL Decoded METAR 2021/03/07 23:00 UTC NOAA

Ninoy Aquino Inter-National Airport, Philippines (RPLL) 14-31N 121-00E 15M
Mar 07, 2021 - 06:00 PM EST / 2021.03.07 2300 UTC
Wind: from the SE (130 degrees) at 3 MPH (3 KT) (direction variable):0
Visibility: greater than 7 mile(s):0
Sky conditions: partly cloudy
Temperature: 78 F (26 C)
Dew Point: 68 F (20 C)
Relative Humidity: 69%
Pressure (altimeter): 29.97 in. Hg (1015 hPa)
ob: RPLL 072300Z 13003KT 080V180 9999 FEW030 SCT100 26/20 Q1015 NOSIG RMK A2997
cycle: 23

Station Type Date Time Source
RPLL TAF 2021/03/07 18:01 UTC NOAA

TAF RPLL 071700Z 0718/0824 11007KT 9999 FEW025 TX33/0806Z TN24/0721Z
TEMPO 0718/0724 04004KT
TEMPO 0803/0809 12010G20KT

Example: see airport list